地図

経路データ

SID SEASON NUMBER BASIN SUBBASIN NAME ISO_TIME NATURE LAT LON WMO_WIND WMO_PRES WMO_AGENCY TRACK_TYPE DIST2LAND LANDFALL IFLAG USA_AGENCY USA_ATCF_ID USA_LAT USA_LON USA_RECORD USA_STATUS USA_WIND USA_PRES USA_SSHS USA_R34_NE USA_R34_SE USA_R34_SW USA_R34_NW USA_R50_NE USA_R50_SE USA_R50_SW USA_R50_NW USA_R64_NE USA_R64_SE USA_R64_SW USA_R64_NW USA_POCI USA_ROCI USA_RMW USA_EYE TOKYO_LAT TOKYO_LON TOKYO_GRADE TOKYO_WIND TOKYO_PRES TOKYO_R50_DIR TOKYO_R50_LONG TOKYO_R50_SHORT TOKYO_R30_DIR TOKYO_R30_LONG TOKYO_R30_SHORT TOKYO_LAND CMA_LAT CMA_LON CMA_CAT CMA_WIND CMA_PRES HKO_LAT HKO_LON HKO_CAT HKO_WIND HKO_PRES NEWDELHI_LAT NEWDELHI_LON NEWDELHI_GRADE NEWDELHI_WIND NEWDELHI_PRES NEWDELHI_CI NEWDELHI_DP NEWDELHI_POCI REUNION_LAT REUNION_LON REUNION_TYPE REUNION_WIND REUNION_PRES REUNION_TNUM REUNION_CI REUNION_RMW REUNION_R34_NE REUNION_R34_SE REUNION_R34_SW REUNION_R34_NW REUNION_R50_NE REUNION_R50_SE REUNION_R50_SW REUNION_R50_NW REUNION_R64_NE REUNION_R64_SE REUNION_R64_SW REUNION_R64_NW BOM_LAT BOM_LON BOM_TYPE BOM_WIND BOM_PRES BOM_TNUM BOM_CI BOM_RMW BOM_R34_NE BOM_R34_SE BOM_R34_SW BOM_R34_NW BOM_R50_NE BOM_R50_SE BOM_R50_SW BOM_R50_NW BOM_R64_NE BOM_R64_SE BOM_R64_SW BOM_R64_NW BOM_ROCI BOM_POCI BOM_EYE BOM_POS_METHOD BOM_PRES_METHOD NADI_LAT NADI_LON NADI_CAT NADI_WIND NADI_PRES WELLINGTON_LAT WELLINGTON_LON WELLINGTON_WIND WELLINGTON_PRES DS824_LAT DS824_LON DS824_STAGE DS824_WIND DS824_PRES TD9636_LAT TD9636_LON TD9636_STAGE TD9636_WIND TD9636_PRES TD9635_LAT TD9635_LON TD9635_WIND TD9635_PRES TD9635_ROCI NEUMANN_LAT NEUMANN_LON NEUMANN_CLASS NEUMANN_WIND NEUMANN_PRES MLC_LAT MLC_LON MLC_CLASS MLC_WIND MLC_PRES USA_GUST BOM_GUST BOM_GUST_PER REUNION_GUST REUNION_GUST_PER USA_SEAHGT USA_SEARAD_NE USA_SEARAD_SE USA_SEARAD_SW USA_SEARAD_NW STORM_SPEED STORM_DIR
1968175N20264 1968 36 NA GM CANDY 1968-06-22 18:00:00 TS 20.0000 -96.0000 25 hurdat_atl main 43 43 O_____________ hurdat_atl AL031968 20.0000 -96.0000 TD 25 -1 15 0
1968175N20264 1968 36 NA GM CANDY 1968-06-22 21:00:00 TS 20.7425 -96.0024 main 91 91 P_____________ AL031968 20.7425 -96.0024 TD 27 -1 15 0
1968175N20264 1968 36 NA GM CANDY 1968-06-23 00:00:00 TS 21.5000 -96.0000 30 hurdat_atl main 134 134 O_____________ hurdat_atl AL031968 21.5000 -96.0000 TD 30 -1 16 0
1968175N20264 1968 36 NA GM CANDY 1968-06-23 03:00:00 TS 22.2850 -95.9926 main 155 155 P_____________ AL031968 22.2850 -95.9926 TD 30 -1 16 0
1968175N20264 1968 36 NA GM CANDY 1968-06-23 06:00:00 TS 23.1000 -96.0000 30 hurdat_atl main 184 182 O_____________ hurdat_atl AL031968 23.1000 -96.0000 TD 30 -1 17 359
1968175N20264 1968 36 NA GM CANDY 1968-06-23 09:00:00 TS 23.9499 -96.0130 main 182 138 P_____________ AL031968 23.9499 -96.0130 TD 30 -1 17 357
1968175N20264 1968 36 NA GM CANDY 1968-06-23 12:00:00 TS 24.8000 -96.1000 30 hurdat_atl main 138 90 O_____________ hurdat_atl AL031968 24.8000 -96.1000 TD 30 -1 17 351
1968175N20264 1968 36 NA GM CANDY 1968-06-23 15:00:00 TS 25.5850 -96.3126 main 90 59 P_____________ AL031968 25.5850 -96.3126 TD 37 0 17 344
1968175N20264 1968 36 NA GM CANDY 1968-06-23 18:00:00 TS 26.4000 -96.6000 45 1001 hurdat_atl main 66 45 O_____________ hurdat_atl AL031968 26.4000 -96.6000 TS 45 1001 0 18 343
1968175N20264 1968 36 NA GM CANDY 1968-06-23 21:00:00 TS 27.3350 -96.8926 main 45 0 P_____________ AL031968 27.3350 -96.8926 TS 52 1000 0 20 344
1968175N20264 1968 36 NA NA CANDY 1968-06-24 00:00:00 TS 28.3000 -97.2000 60 999 hurdat_atl main 0 0 O_____________ hurdat_atl AL031968 28.3000 -97.2000 TS 60 999 0 20 343
1968175N20264 1968 36 NA NA CANDY 1968-06-24 03:00:00 TS 29.1926 -97.5444 main 0 0 P_____________ AL031968 29.1926 -97.5444 TS 45 0 19 344
1968175N20264 1968 36 NA NA CANDY 1968-06-24 06:00:00 TS 30.1000 -97.8000 30 hurdat_atl main 0 0 O_____________ hurdat_atl AL031968 30.1000 -97.8000 TD 30 -1 19 350
1968175N20264 1968 36 NA NA CANDY 1968-06-24 09:00:00 TS 31.0846 -97.9115 main 0 0 P_____________ AL031968 31.0846 -97.9115 TD 27 -1 20 0
1968175N20264 1968 36 NA NA CANDY 1968-06-24 12:00:00 TS 32.1000 -97.8000 25 hurdat_atl main 0 0 O_____________ hurdat_atl AL031968 32.1000 -97.8000 TD 25 -1 21 11
1968175N20264 1968 36 NA NA CANDY 1968-06-24 15:00:00 TS 33.1148 -97.4552 main 0 0 P_____________ AL031968 33.1148 -97.4552 TD 25 -1 21 21
1968175N20264 1968 36 NA NA CANDY 1968-06-24 18:00:00 TS 34.1000 -96.9000 25 hurdat_atl main 0 0 O_____________ hurdat_atl AL031968 34.1000 -96.9000 TD 25 -1 21 27
1968175N20264 1968 36 NA NA CANDY 1968-06-24 21:00:00 TS 34.9759 -96.3149 main 0 0 P_____________ AL031968 34.9759 -96.3149 TD 25 -1 21 33
1968175N20264 1968 36 NA NA CANDY 1968-06-25 00:00:00 TS 35.9000 -95.5000 25 hurdat_atl main 0 0 O_____________ hurdat_atl AL031968 35.9000 -95.5000 TD 25 -1 26 37
1968175N20264 1968 36 NA NA CANDY 1968-06-25 03:00:00 TS 37.0497 -94.3713 main 0 0 P_____________ AL031968 37.0497 -94.3713 TD 25 -1 30 41
1968175N20264 1968 36 NA NA CANDY 1968-06-25 06:00:00 TS 38.2000 -93.0000 25 hurdat_atl main 0 0 O_____________ hurdat_atl AL031968 38.2000 -93.0000 TD 25 -1 31 46
1968175N20264 1968 36 NA NA CANDY 1968-06-25 09:00:00 TS 39.1962 -91.5516 main 0 0 P_____________ AL031968 39.1962 -91.5516 TD 25 -1 29 52
1968175N20264 1968 36 NA NA CANDY 1968-06-25 12:00:00 TS 40.0000 -90.0000 25 hurdat_atl main 0 0 O_____________ hurdat_atl AL031968 40.0000 -90.0000 TD 25 -1 28 60
1968175N20264 1968 36 NA NA CANDY 1968-06-25 15:00:00 TS 40.5808 -88.4107 main 0 0 P_____________ AL031968 40.5808 -88.4107 TD 25 -1 26 68
1968175N20264 1968 36 NA NA CANDY 1968-06-25 18:00:00 TS 41.0000 -86.8000 25 hurdat_atl main 0 0 O_____________ hurdat_atl AL031968 41.0000 -86.8000 TD 25 -1 25 71
1968175N20264 1968 36 NA NA CANDY 1968-06-25 21:00:00 TS 41.3989 -85.2285 main 0 0 P_____________ AL031968 41.3989 -85.2285 TD 25 -1 25 74
1968175N20264 1968 36 NA NA CANDY 1968-06-26 00:00:00 ET 41.7000 -83.6000 25 hurdat_atl main 0 0 O_____________ hurdat_atl AL031968 41.7000 -83.6000 EX 25 -4 26 79
1968175N20264 1968 36 NA NA CANDY 1968-06-26 03:00:00 ET 41.8893 -81.8409 main 0 0 P_____________ AL031968 41.8893 -81.8409 EX 25 -4 27 84
1968175N20264 1968 36 NA NA CANDY 1968-06-26 06:00:00 ET 42.0000 -80.0000 25 hurdat_atl main 0 O_____________ hurdat_atl AL031968 42.0000 -80.0000 EX 25 -4 27 85

IBTrACS Databaseについて

本データベースは、米国NOAAが公開する1842年以降の世界の熱帯低気圧のベストトラックデータアーカイブInternational Best Track Archive for Climate Stewardship (IBTrACS)を、ウェブで閲覧しやすい形式に変換したものです。

最終更新日:2021-10-21